sensor_id;sensor_type;location;lat;lon;timestamp;pressure;altitude;pressure_sealevel;temperature;humidity
41044;BME280;51680;49.806;18.774;2024-01-11T00:00:28;98487.31;;;-1.35;51.01
41044;BME280;51680;49.806;18.774;2024-01-11T00:03:30;98483.91;;;-1.34;50.82
41044;BME280;51680;49.806;18.774;2024-01-11T00:06:40;98475.41;;;-1.33;50.46
41044;BME280;51680;49.806;18.774;2024-01-11T00:09:45;98483.09;;;-1.32;50.94
41044;BME280;51680;49.806;18.774;2024-01-11T00:12:49;98466.84;;;-1.41;50.81
41044;BME280;51680;49.806;18.774;2024-01-11T00:15:53;98461.72;;;-1.50;51.18
41044;BME280;51680;49.806;18.774;2024-01-11T00:18:56;98460.03;;;-1.57;50.87
41044;BME280;51680;49.806;18.774;2024-01-11T00:21:58;98455.75;;;-1.67;51.19
41044;BME280;51680;49.806;18.774;2024-01-11T00:25:04;98448.91;;;-1.68;50.81
41044;BME280;51680;49.806;18.774;2024-01-11T00:28:14;98449.75;;;-1.71;51.15
41044;BME280;51680;49.806;18.774;2024-01-11T00:31:16;98442.94;;;-1.88;51.35
41044;BME280;51680;49.806;18.774;2024-01-11T00:34:18;98452.25;;;-2.10;52.09
41044;BME280;51680;49.806;18.774;2024-01-11T00:37:20;98445.38;;;-2.36;52.96
41044;BME280;51680;49.806;18.774;2024-01-11T00:40:22;98449.63;;;-2.40;52.14
41044;BME280;51680;49.806;18.774;2024-01-11T00:43:25;98449.59;;;-2.41;52.05
41044;BME280;51680;49.806;18.774;2024-01-11T00:46:27;98443.66;;;-2.39;52.25
41044;BME280;51680;49.806;18.774;2024-01-11T00:49:29;98436.88;;;-2.29;51.65
41044;BME280;51680;49.806;18.774;2024-01-11T00:52:30;98426.69;;;-2.22;51.38
41044;BME280;51680;49.806;18.774;2024-01-11T00:55:32;98422.41;;;-2.12;51.49
41044;BME280;51680;49.806;18.774;2024-01-11T00:58:35;98419.91;;;-2.08;51.45
41044;BME280;51680;49.806;18.774;2024-01-11T01:01:37;98412.22;;;-2.00;51.16
41044;BME280;51680;49.806;18.774;2024-01-11T01:04:39;98398.59;;;-1.93;50.99
41044;BME280;51680;49.806;18.774;2024-01-11T01:07:41;98400.28;;;-1.89;50.60
41044;BME280;51680;49.806;18.774;2024-01-11T01:10:43;98379.84;;;-1.80;50.08
41044;BME280;51680;49.806;18.774;2024-01-11T01:13:46;98387.53;;;-1.70;50.42
41044;BME280;51680;49.806;18.774;2024-01-11T01:16:48;98383.25;;;-1.66;50.19
41044;BME280;51680;49.806;18.774;2024-01-11T01:19:50;98387.50;;;-1.56;50.07
41044;BME280;51680;49.806;18.774;2024-01-11T01:22:51;98373.00;;;-1.53;49.72
41044;BME280;51680;49.806;18.774;2024-01-11T01:25:53;98367.03;;;-1.50;49.68
41044;BME280;51680;49.806;18.774;2024-01-11T01:28:57;98357.66;;;-1.51;50.12
41044;BME280;51680;49.806;18.774;2024-01-11T01:31:58;98361.91;;;-1.55;50.73
41044;BME280;51680;49.806;18.774;2024-01-11T01:35:00;98357.66;;;-1.57;50.63
41044;BME280;51680;49.806;18.774;2024-01-11T01:38:02;98368.72;;;-1.55;50.84
41044;BME280;51680;49.806;18.774;2024-01-11T01:41:04;98369.59;;;-1.53;51.02
41044;BME280;51680;49.806;18.774;2024-01-11T01:44:08;98354.22;;;-1.52;50.56
41044;BME280;51680;49.806;18.774;2024-01-11T01:47:10;98359.34;;;-1.47;50.63
41044;BME280;51680;49.806;18.774;2024-01-11T01:50:13;98349.94;;;-1.38;50.79
41044;BME280;51680;49.806;18.774;2024-01-11T01:53:15;98343.97;;;-1.29;50.73
41044;BME280;51680;49.806;18.774;2024-01-11T01:56:18;98349.03;;;-1.14;50.03
41044;BME280;51680;49.806;18.774;2024-01-11T01:59:23;98355.84;;;-1.06;50.04
41044;BME280;51680;49.806;18.774;2024-01-11T02:02:27;98346.38;;;-0.96;49.90
41044;BME280;51680;49.806;18.774;2024-01-11T02:05:29;98366.03;;;-0.91;50.09
41044;BME280;51680;49.806;18.774;2024-01-11T02:08:31;98364.28;;;-0.81;49.54
41044;BME280;51680;49.806;18.774;2024-01-11T02:11:34;98368.53;;;-0.77;49.47
41044;BME280;51680;49.806;18.774;2024-01-11T02:14:38;98373.63;;;-0.67;49.27
41044;BME280;51680;49.806;18.774;2024-01-11T02:17:40;98362.50;;;-0.64;49.46
41044;BME280;51680;49.806;18.774;2024-01-11T02:20:43;98359.03;;;-0.54;49.28
41044;BME280;51680;49.806;18.774;2024-01-11T02:23:56;98353.91;;;-0.54;49.29
41044;BME280;51680;49.806;18.774;2024-01-11T02:26:59;98359.06;;;-0.63;49.59
41044;BME280;51680;49.806;18.774;2024-01-11T02:30:01;98353.16;;;-0.71;49.32
41044;BME280;51680;49.806;18.774;2024-01-11T02:33:04;98351.44;;;-0.74;49.34
41044;BME280;51680;49.806;18.774;2024-01-11T02:36:06;98352.34;;;-0.90;48.83
41044;BME280;51680;49.806;18.774;2024-01-11T02:39:09;98359.19;;;-0.92;49.78
41044;BME280;51680;49.806;18.774;2024-01-11T02:42:12;98366.03;;;-0.92;49.73
41044;BME280;51680;49.806;18.774;2024-01-11T02:45:14;98364.31;;;-0.93;49.76
41044;BME280;51680;49.806;18.774;2024-01-11T02:48:16;98366.06;;;-0.97;49.43
41044;BME280;51680;49.806;18.774;2024-01-11T02:51:18;98359.25;;;-1.05;49.75
41044;BME280;51680;49.806;18.774;2024-01-11T02:54:21;98367.81;;;-1.08;49.95
41044;BME280;51680;49.806;18.774;2024-01-11T02:57:23;98359.28;;;-1.17;49.57
41044;BME280;51680;49.806;18.774;2024-01-11T03:00:24;98366.97;;;-1.19;50.18
41044;BME280;51680;49.806;18.774;2024-01-11T03:03:26;98360.13;;;-1.18;50.51
41044;BME280;51680;49.806;18.774;2024-01-11T03:06:28;98361.84;;;-1.20;50.29
41044;BME280;51680;49.806;18.774;2024-01-11T03:09:31;98353.31;;;-1.22;50.77
41044;BME280;51680;49.806;18.774;2024-01-11T03:12:35;98366.09;;;-1.16;51.01
41044;BME280;51680;49.806;18.774;2024-01-11T03:15:36;98360.13;;;-1.09;50.83
41044;BME280;51680;49.806;18.774;2024-01-11T03:18:38;98352.44;;;-1.11;51.13
41044;BME280;51680;49.806;18.774;2024-01-11T03:21:41;98350.75;;;-1.10;51.16
41044;BME280;51680;49.806;18.774;2024-01-11T03:24:45;98359.25;;;-1.05;51.57
41044;BME280;51680;49.806;18.774;2024-01-11T03:27:47;98357.53;;;-1.06;51.25
41044;BME280;51680;49.806;18.774;2024-01-11T03:30:48;98361.81;;;-1.08;51.34
41044;BME280;51680;49.806;18.774;2024-01-11T03:33:50;98354.16;;;-1.14;51.37
41044;BME280;51680;49.806;18.774;2024-01-11T03:36:52;98354.16;;;-1.14;51.84
41044;BME280;51680;49.806;18.774;2024-01-11T03:39:55;98343.03;;;-1.18;51.60
41044;BME280;51680;49.806;18.774;2024-01-11T03:42:57;98347.38;;;-1.36;51.62
41044;BME280;51680;49.806;18.774;2024-01-11T03:45:59;98360.19;;;-1.35;51.73
41044;BME280;51680;49.806;18.774;2024-01-11T03:49:01;98362.72;;;-1.39;51.69
41044;BME280;51680;49.806;18.774;2024-01-11T03:52:03;98354.22;;;-1.44;51.67
41044;BME280;51680;49.806;18.774;2024-01-11T03:55:07;98364.44;;;-1.41;51.58
41044;BME280;51680;49.806;18.774;2024-01-11T03:58:09;98359.34;;;-1.41;52.22
41044;BME280;51680;49.806;18.774;2024-01-11T04:01:11;98351.63;;;-1.37;51.91
41044;BME280;51680;49.806;18.774;2024-01-11T04:04:13;98357.59;;;-1.29;51.73
41044;BME280;51680;49.806;18.774;2024-01-11T04:07:15;98368.69;;;-1.25;51.78
41044;BME280;51680;49.806;18.774;2024-01-11T04:10:18;98361.00;;;-1.19;51.39
41044;BME280;51680;49.806;18.774;2024-01-11T04:13:20;98361.00;;;-1.19;51.75
41044;BME280;51680;49.806;18.774;2024-01-11T04:16:22;98366.97;;;-1.23;51.77
41044;BME280;51680;49.806;18.774;2024-01-11T04:19:24;98349.06;;;-1.26;51.38
41044;BME280;51680;49.806;18.774;2024-01-11T04:22:28;98349.06;;;-1.35;51.96
41044;BME280;51680;49.806;18.774;2024-01-11T04:25:31;98347.38;;;-1.39;52.03
41044;BME280;51680;49.806;18.774;2024-01-11T04:28:33;98357.63;;;-1.42;52.25
41044;BME280;51680;49.806;18.774;2024-01-11T04:31:35;98347.38;;;-1.45;52.16
41044;BME280;51680;49.806;18.774;2024-01-11T04:34:36;98338.88;;;-1.47;52.17
41044;BME280;51680;49.806;18.774;2024-01-11T04:37:38;98320.94;;;-1.52;52.66
41044;BME280;51680;49.806;18.774;2024-01-11T04:40:42;98325.22;;;-1.55;52.89
41044;BME280;51680;49.806;18.774;2024-01-11T04:43:44;98323.53;;;-1.53;52.38
41044;BME280;51680;49.806;18.774;2024-01-11T04:46:46;98325.22;;;-1.58;52.58
41044;BME280;51680;49.806;18.774;2024-01-11T04:49:48;98326.09;;;-1.55;52.74
41044;BME280;51680;49.806;18.774;2024-01-11T04:52:49;98343.97;;;-1.52;52.71
41044;BME280;51680;49.806;18.774;2024-01-11T04:55:53;98337.16;;;-1.42;52.52
41044;BME280;51680;49.806;18.774;2024-01-11T04:58:54;98336.31;;;-1.47;52.61
41044;BME280;51680;49.806;18.774;2024-01-11T05:01:56;98331.19;;;-1.46;52.64
41044;BME280;51680;49.806;18.774;2024-01-11T05:04:59;98332.88;;;-1.48;52.76
41044;BME280;51680;49.806;18.774;2024-01-11T05:08:01;98324.38;;;-1.48;52.82
41044;BME280;51680;49.806;18.774;2024-01-11T05:11:04;98334.63;;;-1.50;53.01
41044;BME280;51680;49.806;18.774;2024-01-11T05:14:06;98320.13;;;-1.52;53.09
41044;BME280;51680;49.806;18.774;2024-01-11T05:17:08;98310.75;;;-1.68;52.98
41044;BME280;51680;49.806;18.774;2024-01-11T05:20:10;98309.06;;;-1.75;53.51
41044;BME280;51680;49.806;18.774;2024-01-11T05:23:12;98309.06;;;-1.86;53.60
41044;BME280;51680;49.806;18.774;2024-01-11T05:26:16;98313.31;;;-1.83;54.01
41044;BME280;51680;49.806;18.774;2024-01-11T05:29:18;98298.00;;;-1.86;54.14
41044;BME280;51680;49.806;18.774;2024-01-11T05:32:20;98298.84;;;-1.83;54.11
41044;BME280;51680;49.806;18.774;2024-01-11T05:35:22;98304.81;;;-1.85;54.24
41044;BME280;51680;49.806;18.774;2024-01-11T05:38:24;98303.09;;;-1.83;54.30
41044;BME280;51680;49.806;18.774;2024-01-11T05:41:28;98292.00;;;-1.85;54.81
41044;BME280;51680;49.806;18.774;2024-01-11T05:44:29;98301.38;;;-1.83;54.08
41044;BME280;51680;49.806;18.774;2024-01-11T05:47:33;98297.09;;;-1.81;54.18
41044;BME280;51680;49.806;18.774;2024-01-11T05:50:34;98309.91;;;-1.79;54.58
41044;BME280;51680;49.806;18.774;2024-01-11T05:53:36;98297.09;;;-1.70;54.23
41044;BME280;51680;49.806;18.774;2024-01-11T05:56:39;98286.84;;;-1.66;54.33
41044;BME280;51680;49.806;18.774;2024-01-11T05:59:43;98279.19;;;-1.67;53.99
41044;BME280;51680;49.806;18.774;2024-01-11T06:02:45;98264.69;;;-1.62;54.10
41044;BME280;51680;49.806;18.774;2024-01-11T06:05:50;98265.53;;;-1.69;54.36
41044;BME280;51680;49.806;18.774;2024-01-11T06:08:54;98272.38;;;-1.71;54.12
41044;BME280;51680;49.806;18.774;2024-01-11T06:12:00;98269.81;;;-1.65;53.97
41044;BME280;51680;49.806;18.774;2024-01-11T06:15:05;98245.06;;;-1.57;54.06
41044;BME280;51680;49.806;18.774;2024-01-11T06:18:09;98233.09;;;-1.52;54.06
41044;BME280;51680;49.806;18.774;2024-01-11T06:21:10;98228.78;;;-1.44;53.77
41044;BME280;51680;49.806;18.774;2024-01-11T06:24:15;98239.91;;;-1.48;53.71
41044;BME280;51680;49.806;18.774;2024-01-11T06:27:22;98236.50;;;-1.53;53.76
41044;BME280;51680;49.806;18.774;2024-01-11T06:30:24;98256.13;;;-1.54;53.81
41044;BME280;51680;49.806;18.774;2024-01-11T06:33:28;98255.25;;;-1.54;53.70
41044;BME280;51680;49.806;18.774;2024-01-11T06:36:30;98243.34;;;-1.55;53.53
41044;BME280;51680;49.806;18.774;2024-01-11T06:39:35;98243.31;;;-1.58;53.91
41044;BME280;51680;49.806;18.774;2024-01-11T06:42:38;98237.34;;;-1.53;53.48
41044;BME280;51680;49.806;18.774;2024-01-11T06:45:40;98251.81;;;-1.44;53.52
41044;BME280;51680;49.806;18.774;2024-01-11T06:48:45;98256.06;;;-1.36;53.11
41044;BME280;51680;49.806;18.774;2024-01-11T06:51:50;98244.94;;;-1.29;53.18
41044;BME280;51680;49.806;18.774;2024-01-11T06:54:55;98239.78;;;-1.21;52.81
41044;BME280;51680;49.806;18.774;2024-01-11T06:58:00;98237.16;;;-1.06;52.31
41044;BME280;51680;49.806;18.774;2024-01-11T07:01:04;98237.19;;;0.04;51.77
41044;BME280;51680;49.806;18.774;2024-01-11T07:04:06;98227.38;;;1.71;48.73
41044;BME280;51680;49.806;18.774;2024-01-11T07:07:10;98222.88;;;3.53;46.17
41044;BME280;51680;49.806;18.774;2024-01-11T07:10:15;98223.22;;;5.33;43.28
41044;BME280;51680;49.806;18.774;2024-01-11T07:13:24;98201.38;;;6.93;39.01
41044;BME280;51680;49.806;18.774;2024-01-11T07:16:26;98210.13;;;8.01;39.06
41044;BME280;51680;49.806;18.774;2024-01-11T07:19:28;98204.34;;;8.76;36.75
41044;BME280;51680;49.806;18.774;2024-01-11T07:22:30;98196.00;;;9.25;36.69
41044;BME280;51680;49.806;18.774;2024-01-11T07:25:33;98185.28;;;9.85;35.81
41044;BME280;51680;49.806;18.774;2024-01-11T07:28:39;98170.56;;;10.20;33.85
41044;BME280;51680;49.806;18.774;2024-01-11T07:31:41;98175.81;;;11.02;34.88
41044;BME280;51680;49.806;18.774;2024-01-11T07:34:46;98172.69;;;11.74;33.11
41044;BME280;51680;49.806;18.774;2024-01-11T07:37:50;98169.19;;;11.89;32.47
41044;BME280;51680;49.806;18.774;2024-01-11T07:40:55;98161.47;;;12.17;32.60
41044;BME280;51680;49.806;18.774;2024-01-11T07:44:05;98146.16;;;12.39;30.16
41044;BME280;51680;49.806;18.774;2024-01-11T07:47:09;98152.56;;;12.77;31.76
41044;BME280;51680;49.806;18.774;2024-01-11T07:50:11;98141.16;;;13.20;31.23
41044;BME280;51680;49.806;18.774;2024-01-11T07:53:13;98141.22;;;13.73;30.98
41044;BME280;51680;49.806;18.774;2024-01-11T07:56:15;98135.16;;;13.99;30.39
41044;BME280;51680;49.806;18.774;2024-01-11T07:59:19;98134.00;;;14.42;29.02
41044;BME280;51680;49.806;18.774;2024-01-11T08:02:21;98108.47;;;14.82;29.73
41044;BME280;51680;49.806;18.774;2024-01-11T08:05:23;98111.38;;;15.02;28.72
41044;BME280;51680;49.806;18.774;2024-01-11T08:08:25;98117.53;;;14.65;28.33
41044;BME280;51680;49.806;18.774;2024-01-11T08:11:28;98136.50;;;15.19;28.44
41044;BME280;51680;49.806;18.774;2024-01-11T08:14:32;98149.56;;;16.50;27.79
41044;BME280;51680;49.806;18.774;2024-01-11T08:17:34;98157.81;;;18.22;27.35
41044;BME280;51680;49.806;18.774;2024-01-11T08:20:36;98164.78;;;18.96;26.01
41044;BME280;51680;49.806;18.774;2024-01-11T08:23:39;98147.66;;;19.69;24.74
41044;BME280;51680;49.806;18.774;2024-01-11T08:26:45;98142.31;;;19.99;24.56
41044;BME280;51680;49.806;18.774;2024-01-11T08:29:48;98137.88;;;20.09;23.81
41044;BME280;51680;49.806;18.774;2024-01-11T08:32:50;98129.63;;;20.41;24.48
41044;BME280;51680;49.806;18.774;2024-01-11T08:40:37;98112.84;;;19.93;24.43
41044;BME280;51680;49.806;18.774;2024-01-11T08:43:39;98114.06;;;19.70;24.70
41044;BME280;51680;49.806;18.774;2024-01-11T08:46:43;98100.59;;;19.33;23.64
41044;BME280;51680;49.806;18.774;2024-01-11T08:49:45;98105.91;;;19.43;23.84
41044;BME280;51680;49.806;18.774;2024-01-11T08:52:49;98118.16;;;19.14;23.24
41044;BME280;51680;49.806;18.774;2024-01-11T08:55:51;98119.63;;;19.67;23.62
41044;BME280;51680;49.806;18.774;2024-01-11T08:58:54;98128.16;;;19.01;23.62
41044;BME280;51680;49.806;18.774;2024-01-11T09:01:57;98112.38;;;17.96;24.17
41044;BME280;51680;49.806;18.774;2024-01-11T09:04:59;98105.03;;;16.24;26.14
41044;BME280;51680;49.806;18.774;2024-01-11T09:08:10;98117.13;;;14.07;27.64
41044;BME280;51680;49.806;18.774;2024-01-11T09:11:12;98125.63;;;12.75;28.70
41044;BME280;51680;49.806;18.774;2024-01-11T09:14:15;98114.44;;;10.93;29.75
41044;BME280;51680;49.806;18.774;2024-01-11T09:17:18;98128.03;;;9.48;30.36
41044;BME280;51680;49.806;18.774;2024-01-11T09:20:22;98113.22;;;7.98;33.24
41044;BME280;51680;49.806;18.774;2024-01-11T09:23:24;98121.69;;;6.97;34.11
41044;BME280;51680;49.806;18.774;2024-01-11T09:26:26;98120.81;;;6.27;35.66
41044;BME280;51680;49.806;18.774;2024-01-11T09:29:28;98125.06;;;5.79;35.87
41044;BME280;51680;49.806;18.774;2024-01-11T09:32:31;98124.34;;;5.48;36.00
41044;BME280;51680;49.806;18.774;2024-01-11T09:35:33;98130.50;;;5.18;36.47
41044;BME280;51680;49.806;18.774;2024-01-11T09:38:35;98142.38;;;4.96;37.13
41044;BME280;51680;49.806;18.774;2024-01-11T09:41:41;98126.81;;;4.70;36.60
41044;BME280;51680;49.806;18.774;2024-01-11T09:44:44;98117.84;;;4.53;36.68
41044;BME280;51680;49.806;18.774;2024-01-11T09:47:49;98114.69;;;4.42;37.82
41044;BME280;51680;49.806;18.774;2024-01-11T09:50:54;98105.72;;;4.24;37.72
41044;BME280;51680;49.806;18.774;2024-01-11T09:53:59;98106.91;;;4.13;38.34
41044;BME280;51680;49.806;18.774;2024-01-11T09:57:05;98117.19;;;4.14;37.31
41044;BME280;51680;49.806;18.774;2024-01-11T10:00:16;98118.16;;;4.10;36.63
41044;BME280;51680;49.806;18.774;2024-01-11T10:03:24;98121.56;;;4.12;37.83
41044;BME280;51680;49.806;18.774;2024-01-11T10:06:35;98121.94;;;4.29;38.22
41044;BME280;51680;49.806;18.774;2024-01-11T10:09:40;98113.63;;;4.50;38.28
41044;BME280;51680;49.806;18.774;2024-01-11T10:12:44;98113.22;;;4.64;37.89
41044;BME280;51680;49.806;18.774;2024-01-11T10:15:46;98130.28;;;4.69;38.23
41044;BME280;51680;49.806;18.774;2024-01-11T10:18:53;98117.78;;;4.83;37.32
41044;BME280;51680;49.806;18.774;2024-01-11T10:21:56;98105.75;;;4.82;38.38
41044;BME280;51680;49.806;18.774;2024-01-11T10:25:08;98104.06;;;4.81;38.21
41044;BME280;51680;49.806;18.774;2024-01-11T10:28:13;98100.22;;;4.94;38.72
41044;BME280;51680;49.806;18.774;2024-01-11T10:31:15;98093.88;;;4.77;40.15
41044;BME280;51680;49.806;18.774;2024-01-11T10:34:18;98092.03;;;4.80;40.80
41044;BME280;51680;49.806;18.774;2024-01-11T10:37:22;98091.03;;;4.84;39.48
41044;BME280;51680;49.806;18.774;2024-01-11T10:40:24;98097.22;;;5.06;39.56
41044;BME280;51680;49.806;18.774;2024-01-11T10:43:27;98083.56;;;5.29;39.74
41044;BME280;51680;49.806;18.774;2024-01-11T10:46:34;98079.44;;;5.49;39.79
41044;BME280;51680;49.806;18.774;2024-01-11T10:49:39;98085.44;;;5.51;39.35
41044;BME280;51680;49.806;18.774;2024-01-11T10:52:56;98069.38;;;5.40;37.26
41044;BME280;51680;49.806;18.774;2024-01-11T10:56:03;98063.13;;;5.21;38.87
41044;BME280;51680;49.806;18.774;2024-01-11T10:59:07;98056.03;;;5.26;38.90
41044;BME280;51680;49.806;18.774;2024-01-11T11:02:12;98051.47;;;5.34;39.15
41044;BME280;51680;49.806;18.774;2024-01-11T11:05:18;98052.88;;;5.44;38.99
41044;BME280;51680;49.806;18.774;2024-01-11T11:08:22;98039.97;;;5.43;38.75
41044;BME280;51680;49.806;18.774;2024-01-11T11:11:25;98034.88;;;5.41;39.02
41044;BME280;51680;49.806;18.774;2024-01-11T11:14:28;98035.81;;;5.39;39.24
41044;BME280;51680;49.806;18.774;2024-01-11T11:17:49;98016.22;;;5.30;38.23
41044;BME280;51680;49.806;18.774;2024-01-11T11:20:54;98007.47;;;5.34;38.17
41044;BME280;51680;49.806;18.774;2024-01-11T11:23:56;98002.09;;;5.40;38.37
41044;BME280;51680;49.806;18.774;2024-01-11T11:26:59;97989.66;;;5.51;38.75
41044;BME280;51680;49.806;18.774;2024-01-11T11:30:01;97981.38;;;5.65;38.82
41044;BME280;51680;49.806;18.774;2024-01-11T11:33:09;97978.63;;;5.69;38.51
41044;BME280;51680;49.806;18.774;2024-01-11T11:36:13;97975.88;;;5.49;38.93
41044;BME280;51680;49.806;18.774;2024-01-11T11:39:18;97970.97;;;5.42;38.93
41044;BME280;51680;49.806;18.774;2024-01-11T11:42:22;97972.75;;;5.41;39.26
41044;BME280;51680;49.806;18.774;2024-01-11T11:45:25;97973.81;;;5.34;39.31
41044;BME280;51680;49.806;18.774;2024-01-11T11:48:50;97969.97;;;5.46;41.21
41044;BME280;51680;49.806;18.774;2024-01-11T11:51:55;97973.88;;;5.57;41.45
41044;BME280;51680;49.806;18.774;2024-01-11T11:54:58;97976.84;;;5.71;41.09
41044;BME280;51680;49.806;18.774;2024-01-11T11:58:01;97962.47;;;5.87;40.77
41044;BME280;51680;49.806;18.774;2024-01-11T12:01:03;97955.13;;;5.98;41.60
41044;BME280;51680;49.806;18.774;2024-01-11T12:04:08;97956.94;;;5.96;41.25
41044;BME280;51680;49.806;18.774;2024-01-11T12:07:11;97955.03;;;6.01;41.34
41044;BME280;51680;49.806;18.774;2024-01-11T12:10:14;97960.06;;;6.06;41.55
41044;BME280;51680;49.806;18.774;2024-01-11T12:13:16;97957.03;;;5.93;41.57
41044;BME280;51680;49.806;18.774;2024-01-11T12:16:18;97943.75;;;5.79;41.85
41044;BME280;51680;49.806;18.774;2024-01-11T12:19:20;97959.94;;;5.61;41.39
41044;BME280;51680;49.806;18.774;2024-01-11T12:22:23;97951.91;;;5.69;41.82
41044;BME280;51680;49.806;18.774;2024-01-11T12:25:25;97957.16;;;5.66;41.99
41044;BME280;51680;49.806;18.774;2024-01-11T12:28:27;97956.34;;;5.65;41.97
41044;BME280;51680;49.806;18.774;2024-01-11T12:31:29;97956.13;;;5.71;42.47
41044;BME280;51680;49.806;18.774;2024-01-11T12:34:31;97949.25;;;5.70;41.85
41044;BME280;51680;49.806;18.774;2024-01-11T12:37:34;97956.81;;;5.76;42.76
41044;BME280;51680;49.806;18.774;2024-01-11T12:40:36;97950.81;;;5.74;42.53
41044;BME280;51680;49.806;18.774;2024-01-11T12:43:38;97948.41;;;5.70;42.54
41044;BME280;51680;49.806;18.774;2024-01-11T12:46:40;97928.00;;;5.61;42.47
41044;BME280;51680;49.806;18.774;2024-01-11T12:49:43;97921.53;;;5.49;42.05
41044;BME280;51680;49.806;18.774;2024-01-11T12:52:47;97927.72;;;5.21;42.90
41044;BME280;51680;49.806;18.774;2024-01-11T12:56:06;97920.06;;;5.18;43.67
41044;BME280;51680;49.806;18.774;2024-01-11T12:59:11;97924.75;;;5.07;44.68
41044;BME280;51680;49.806;18.774;2024-01-11T13:02:14;97914.06;;;4.91;43.63
41044;BME280;51680;49.806;18.774;2024-01-11T13:05:17;97913.28;;;4.89;43.76
41044;BME280;51680;49.806;18.774;2024-01-11T13:08:20;97906.25;;;4.93;43.10
41044;BME280;51680;49.806;18.774;2024-01-11T13:11:22;97905.31;;;4.95;43.95
41044;BME280;51680;49.806;18.774;2024-01-11T13:14:25;97905.66;;;4.85;43.95
41044;BME280;51680;49.806;18.774;2024-01-11T13:17:27;97902.13;;;4.87;42.92
41044;BME280;51680;49.806;18.774;2024-01-11T13:20:29;97895.06;;;4.92;42.46
41044;BME280;51680;49.806;18.774;2024-01-11T13:23:33;97889.19;;;4.87;42.73
41044;BME280;51680;49.806;18.774;2024-01-11T13:26:35;97875.84;;;4.75;42.65
41044;BME280;51680;49.806;18.774;2024-01-11T13:29:38;97871.53;;;4.75;42.89
41044;BME280;51680;49.806;18.774;2024-01-11T13:32:39;97863.91;;;4.71;42.29
41044;BME280;51680;49.806;18.774;2024-01-11T13:35:41;97871.91;;;4.63;42.79
41044;BME280;51680;49.806;18.774;2024-01-11T13:38:45;97864.31;;;4.59;43.46
41044;BME280;51680;49.806;18.774;2024-01-11T13:41:47;97866.06;;;4.58;42.46
41044;BME280;51680;49.806;18.774;2024-01-11T13:44:49;97864.28;;;4.60;42.56
41044;BME280;51680;49.806;18.774;2024-01-11T13:47:51;97867.00;;;4.56;42.66
41044;BME280;51680;49.806;18.774;2024-01-11T13:50:54;97854.28;;;4.50;42.67
41044;BME280;51680;49.806;18.774;2024-01-11T13:53:57;97859.00;;;4.37;42.68
41044;BME280;51680;49.806;18.774;2024-01-11T13:57:01;97870.16;;;4.38;42.99
41044;BME280;51680;49.806;18.774;2024-01-11T14:00:03;97873.63;;;4.38;42.67
41044;BME280;51680;49.806;18.774;2024-01-11T14:03:06;97866.72;;;4.39;42.79
41044;BME280;51680;49.806;18.774;2024-01-11T14:06:09;97866.06;;;4.32;43.08
41044;BME280;51680;49.806;18.774;2024-01-11T14:09:12;97862.78;;;4.27;43.33
41044;BME280;51680;49.806;18.774;2024-01-11T14:12:14;97872.41;;;4.22;43.14
41044;BME280;51680;49.806;18.774;2024-01-11T14:15:16;97868.97;;;4.22;43.45
41044;BME280;51680;49.806;18.774;2024-01-11T14:18:18;97868.22;;;4.18;43.32
41044;BME280;51680;49.806;18.774;2024-01-11T14:21:20;97877.03;;;4.11;43.66
41044;BME280;51680;49.806;18.774;2024-01-11T14:24:23;97874.41;;;4.13;44.19
41044;BME280;51680;49.806;18.774;2024-01-11T14:27:25;97871.59;;;3.93;44.52
41044;BME280;51680;49.806;18.774;2024-01-11T14:30:28;97875.88;;;3.94;44.11
41044;BME280;51680;49.806;18.774;2024-01-11T14:33:30;97878.50;;;3.92;44.26
41044;BME280;51680;49.806;18.774;2024-01-11T14:36:32;97878.69;;;3.86;44.67
41044;BME280;51680;49.806;18.774;2024-01-11T14:39:35;97878.91;;;3.79;44.56
41044;BME280;51680;49.806;18.774;2024-01-11T14:42:37;97878.06;;;3.78;44.58
41044;BME280;51680;49.806;18.774;2024-01-11T14:45:40;97889.47;;;3.71;45.06
41044;BME280;51680;49.806;18.774;2024-01-11T14:48:41;97893.75;;;3.72;45.30
41044;BME280;51680;49.806;18.774;2024-01-11T14:51:43;97881.88;;;3.67;45.42
41044;BME280;51680;49.806;18.774;2024-01-11T14:54:46;97882.81;;;3.64;45.39
41044;BME280;51680;49.806;18.774;2024-01-11T14:57:48;97878.47;;;3.65;45.29
41044;BME280;51680;49.806;18.774;2024-01-11T15:00:50;97881.91;;;3.65;45.64
41044;BME280;51680;49.806;18.774;2024-01-11T15:03:52;97885.28;;;3.67;45.47
41044;BME280;51680;49.806;18.774;2024-01-11T15:06:54;97882.84;;;3.63;45.95
41044;BME280;51680;49.806;18.774;2024-01-11T15:09:58;97886.38;;;3.60;46.00
41044;BME280;51680;49.806;18.774;2024-01-11T15:12:59;97898.44;;;3.58;46.04
41044;BME280;51680;49.806;18.774;2024-01-11T15:16:01;97902.75;;;3.59;46.14
41044;BME280;51680;49.806;18.774;2024-01-11T15:19:03;97903.75;;;3.54;46.45
41044;BME280;51680;49.806;18.774;2024-01-11T15:22:05;97916.69;;;3.52;46.58
41044;BME280;51680;49.806;18.774;2024-01-11T15:25:10;97913.47;;;3.44;46.69
41044;BME280;51680;49.806;18.774;2024-01-11T15:28:12;97918.03;;;3.35;46.86
41044;BME280;51680;49.806;18.774;2024-01-11T15:31:14;97925.88;;;3.30;47.02
41044;BME280;51680;49.806;18.774;2024-01-11T15:34:15;97920.06;;;3.24;47.73
41044;BME280;51680;49.806;18.774;2024-01-11T15:37:17;97912.47;;;3.18;47.70
41044;BME280;51680;49.806;18.774;2024-01-11T15:40:21;97907.69;;;3.04;48.61
41044;BME280;51680;49.806;18.774;2024-01-11T15:43:24;97909.94;;;2.84;51.63
41044;BME280;51680;49.806;18.774;2024-01-11T15:46:25;97911.63;;;2.85;49.06
41044;BME280;51680;49.806;18.774;2024-01-11T15:49:28;97910.00;;;2.81;49.61
41044;BME280;51680;49.806;18.774;2024-01-11T15:52:30;97906.81;;;2.73;49.55
41044;BME280;51680;49.806;18.774;2024-01-11T15:55:34;97902.78;;;2.62;50.74
41044;BME280;51680;49.806;18.774;2024-01-11T15:58:36;97893.53;;;2.53;50.62
41044;BME280;51680;49.806;18.774;2024-01-11T16:01:38;97907.63;;;2.40;51.66
41044;BME280;51680;49.806;18.774;2024-01-11T16:04:40;97908.66;;;2.32;52.06
41044;BME280;51680;49.806;18.774;2024-01-11T16:07:44;97920.00;;;2.25;52.23